Uintah, Utah
Current Conditions -  °F | °C
As of 8:58 AM on Tuesday 27 Jan 2015 (Local Time) from KHIF Reporting Station
Broken Clouds Broken Clouds  
Wind Chill: 37°   Ceiling: 11000
Heat Index: 37°   Visibility: 10mi
Dew Point: 30°   Wind: 3mph
Humidity: 76%   Direction: 160°SSE
Pressure: 30.21"   Gusts: NA
Location:  41.162°N, 111.972°W
Report Text: KHIF 271558Z 16003KT 10SM BKN110 BKN200 03/M01 A3021 RMK AO2A SLP232 T00281011
Loading
Personal Weather Stations






























Interactive Weather Map New forecast layout! Learn more

10-Day Weather Forecast

Advertisements
Track Severe Weather on mobile